Time;durP1;ratioP1;P1;durP2;ratioP2;P2;SDS_P1;SDS_P2;PMS_P1;PMS_P2;Temp;Humidity;BMP_temperature;BMP_pressure;BME280_temperature;BME280_humidity;BME280_pressure;Samples;Min_cycle;Max_cycle;Signal;HPM_P1;HPM_P2
2023/06/10 00:01:47;;;;;;;4.95;4.03;;;17.10;99.60;;;17.00;95.98;96857.22;5050335;28;20429;-36
2023/06/10 00:04:18;;;;;;;5.97;4.53;;;17.00;99.70;;;16.98;94.68;96863.50;5049785;28;20033;-37
2023/06/10 00:06:44;;;;;;;6.03;4.70;;;17.10;99.60;;;17.00;94.49;96867.88;5049827;28;20070;-37
2023/06/10 00:09:10;;;;;;;5.15;4.10;;;17.10;99.70;;;17.00;94.97;96863.38;5043761;28;20452;-39
2023/06/10 00:11:37;;;;;;;5.07;4.00;;;17.10;99.80;;;17.01;94.13;96862.41;5047373;28;20416;-39
2023/06/10 00:14:03;;;;;;;5.65;4.38;;;17.00;99.70;;;16.92;94.53;96849.75;5047826;28;20123;-38
2023/06/10 00:16:30;;;;;;;4.53;3.97;;;17.00;99.80;;;16.92;95.42;96860.41;5053717;28;20095;-38
2023/06/10 00:19:00;;;;;;;6.40;4.25;;;17.00;99.90;;;16.86;96.10;96860.84;5046626;28;20127;-39
2023/06/10 00:21:29;;;;;;;5.30;4.55;;;17.00;99.90;;;16.73;96.58;96840.38;5052449;28;20181;-38
2023/06/10 00:23:56;;;;;;;5.53;4.43;;;16.90;99.90;;;16.68;97.87;96841.66;5047912;28;21417;-39
2023/06/10 00:26:25;;;;;;;4.85;4.35;;;16.90;99.90;;;16.80;97.12;96862.09;5051719;28;20041;-39
2023/06/10 00:28:52;;;;;;;4.63;4.15;;;16.90;99.90;;;16.74;96.86;96851.88;5044980;28;20032;-38
2023/06/10 00:31:18;;;;;;;5.05;4.40;;;16.90;99.90;;;16.78;97.16;96858.69;5051387;28;20044;-40
2023/06/10 00:33:44;;;;;;;4.43;4.03;;;16.80;99.90;;;16.77;97.60;96862.31;5049822;28;20120;-37
2023/06/10 00:36:09;;;;;;;5.47;4.38;;;16.80;99.90;;;16.75;98.14;96858.91;5052600;28;20052;-37
2023/06/10 00:38:36;;;;;;;4.28;3.88;;;16.80;99.90;;;16.74;98.33;96860.72;5048501;28;20337;-37
2023/06/10 00:41:02;;;;;;;5.00;4.30;;;16.80;99.90;;;16.58;98.88;96842.31;5049320;28;20037;-37
2023/06/10 00:43:27;;;;;;;4.90;4.32;;;16.80;99.90;;;16.65;100.00;96860.50;5050727;28;20555;-37
2023/06/10 00:45:53;;;;;;;5.65;3.90;;;16.70;99.90;;;16.63;100.00;96857.94;5050193;28;20106;-37
2023/06/10 00:48:19;;;;;;;4.65;4.22;;;16.70;99.90;;;16.36;100.00;96811.00;5050689;28;20025;-37
2023/06/10 00:50:46;;;;;;;5.07;4.15;;;16.70;99.90;;;16.60;100.00;96855.53;5049206;28;20039;-37
2023/06/10 00:53:13;;;;;;;6.03;4.38;;;16.70;99.90;;;16.62;100.00;96856.25;5049812;28;20108;-37
2023/06/10 00:55:40;;;;;;;6.28;4.70;;;16.70;99.90;;;16.63;100.00;96862.44;5047576;28;20415;-37
2023/06/10 00:58:07;;;;;;;5.45;4.35;;;16.70;99.90;;;16.64;99.91;96850.84;5045639;28;20579;-37
2023/06/10 01:00:32;;;;;;;6.60;4.88;;;16.70;99.90;;;16.68;99.80;96857.63;5053132;28;20044;-37
2023/06/10 01:02:58;;;;;;;5.75;4.40;;;16.80;99.90;;;16.68;99.44;96858.47;5042122;28;20125;-37
2023/06/10 01:05:24;;;;;;;5.20;4.32;;;16.80;99.90;;;16.66;99.45;96848.91;5052491;28;20037;-37
2023/06/10 01:08:10;;;;;;;6.25;4.75;;;16.80;99.90;;;16.68;99.49;96855.81;5064035;28;20036;-37
2023/06/10 01:10:43;;;;;;;5.55;4.40;;;16.70;99.90;;;16.65;100.00;96852.53;5063238;28;20298;-37
2023/06/10 01:13:13;;;;;;;6.90;4.90;;;16.70;99.90;;;16.60;100.00;96851.03;5035982;28;20089;-37
2023/06/10 01:15:39;;;;;;;5.65;4.43;;;16.70;99.90;;;16.58;100.00;96852.09;5049902;28;20124;-37
2023/06/10 01:18:14;;;;;;;5.22;4.63;;;16.60;99.90;;;16.51;100.00;96849.03;5050788;28;20025;-37
2023/06/10 01:20:42;;;;;;;4.97;4.35;;;16.60;99.90;;;16.48;100.00;96849.22;5046462;28;20166;-37
2023/06/10 01:23:10;;;;;;;5.25;4.53;;;16.50;99.90;;;16.43;100.00;96846.03;5048350;28;20040;-39
2023/06/10 01:25:44;;;;;;;5.53;4.45;;;16.50;99.90;;;16.37;100.00;96843.81;5046099;28;20500;-39
2023/06/10 01:28:39;;;;;;;5.85;4.20;;;16.40;99.90;;;16.32;100.00;96852.09;5048846;28;20040;-39
2023/06/10 01:31:59;;;;;;;5.85;4.43;;;16.40;99.90;;;16.27;100.00;96848.91;5047945;28;20085;-39
2023/06/10 01:34:26;;;;;;;4.85;4.20;;;16.40;99.90;;;16.28;100.00;96842.63;5043501;28;20106;-38
2023/06/10 01:36:55;;;;;;;4.68;4.20;;;16.40;99.90;;;16.29;100.00;96848.81;5060237;28;20040;-39
2023/06/10 01:39:24;;;;;;;5.78;4.47;;;16.30;99.90;;;16.23;100.00;96848.25;5049741;28;20032;-38
2023/06/10 01:41:52;;;;;;;5.85;4.53;;;16.30;99.90;;;16.11;100.00;96833.13;5048311;28;20556;-38
2023/06/10 01:44:20;;;;;;;4.65;4.05;;;16.30;99.90;;;16.12;100.00;96839.31;5064220;28;20497;-38
2023/06/10 01:46:46;;;;;;;5.22;4.28;;;16.20;99.90;;;16.12;100.00;96850.81;5046639;28;20025;-39
2023/06/10 01:49:12;;;;;;;4.72;4.18;;;16.20;99.90;;;16.02;100.00;96844.41;5046654;28;20077;-38
2023/06/10 01:51:38;;;;;;;4.93;3.88;;;16.20;99.90;;;16.00;100.00;96844.50;5048030;28;20424;-37
2023/06/10 01:54:04;;;;;;;5.43;4.43;;;16.10;99.90;;;15.93;100.00;96851.19;5050996;28;20032;-37
2023/06/10 01:56:30;;;;;;;5.63;4.00;;;16.00;99.90;;;15.88;100.00;96850.69;5046362;28;20025;-38
2023/06/10 01:58:58;;;;;;;9.00;4.95;;;16.00;99.90;;;15.87;100.00;96856.09;5044271;28;20435;-38
2023/06/10 02:01:25;;;;;;;7.63;4.97;;;16.00;99.90;;;15.81;100.00;96858.19;5048298;28;20148;-38
2023/06/10 02:03:51;;;;;;;5.38;4.53;;;16.00;99.90;;;15.75;100.00;96841.78;5051043;28;20039;-38
2023/06/10 02:06:17;;;;;;;4.65;4.15;;;15.90;99.90;;;15.72;100.00;96841.97;5050794;28;20393;-37
2023/06/10 02:08:42;;;;;;;5.22;3.80;;;15.90;99.90;;;15.74;100.00;96848.03;5063476;28;20025;-37
2023/06/10 02:11:08;;;;;;;5.72;4.07;;;15.90;99.90;;;15.65;100.00;96850.34;5053144;28;20029;-38
2023/06/10 02:13:34;;;;;;;5.32;4.03;;;15.80;99.90;;;15.69;100.00;96863.44;5051190;28;20119;-39
2023/06/10 02:16:00;;;;;;;8.00;4.85;;;15.80;99.90;;;15.59;100.00;96864.03;5052631;28;20032;-36
2023/06/10 02:18:28;;;;;;;5.75;5.03;;;15.70;99.90;;;15.54;100.00;96860.84;5049633;28;20197;-37
2023/06/10 02:20:54;;;;;;;5.75;4.50;;;15.70;99.90;;;15.46;100.00;96861.31;5043028;28;20036;-38
2023/06/10 02:23:20;;;;;;;5.93;4.57;;;15.60;99.90;;;15.40;100.00;96866.22;5047284;28;20047;-38
2023/06/10 02:25:47;;;;;;;5.32;4.82;;;15.50;99.90;;;15.34;100.00;96861.28;5033263;28;20108;-37
2023/06/10 02:28:13;;;;;;;6.13;4.43;;;15.50;99.90;;;15.26;100.00;96861.78;5046089;28;20111;-38
2023/06/10 02:30:42;;;;;;;5.68;4.45;;;15.40;99.90;;;15.20;100.00;96860.38;5043007;28;20044;-38
2023/06/10 02:33:11;;;;;;;4.72;4.22;;;15.30;99.90;;;15.13;100.00;96866.16;5043466;28;20520;-38
2023/06/10 02:35:38;;;;;;;6.50;4.10;;;15.20;99.90;;;14.85;100.00;96828.09;5049516;28;20036;-38
2023/06/10 02:38:04;;;;;;;5.65;4.53;;;15.20;99.90;;;15.00;100.00;96871.41;5048309;28;20026;-38
2023/06/10 02:40:30;;;;;;;5.88;4.38;;;15.10;99.90;;;14.97;100.00;96872.47;5050198;28;20028;-37
2023/06/10 02:42:57;;;;;;;5.07;4.57;;;15.10;99.90;;;14.92;100.00;96877.19;5044667;28;20103;-37
2023/06/10 02:45:23;;;;;;;5.72;4.22;;;15.00;99.90;;;14.85;100.00;96884.69;5048736;28;20016;-37
2023/06/10 02:47:48;;;;;;;5.05;4.55;;;14.90;99.90;;;14.77;100.00;96879.03;5046117;28;20036;-38
2023/06/10 02:50:14;;;;;;;6.43;4.30;;;14.90;99.90;;;14.71;100.00;96882.03;5050804;28;20656;-38
2023/06/10 02:52:40;;;;;;;5.32;4.45;;;14.80;99.90;;;14.60;100.00;96877.38;5048904;28;20060;-38
2023/06/10 02:55:06;;;;;;;5.78;4.75;;;14.80;99.90;;;14.56;100.00;96881.16;5045996;28;20044;-37
2023/06/10 02:57:32;;;;;;;6.32;4.60;;;14.70;99.90;;;14.52;100.00;96884.94;5050924;28;20025;-38
2023/06/10 02:59:58;;;;;;;5.78;4.75;;;14.60;99.90;;;14.41;100.00;96876.78;5046477;28;20021;-37
2023/06/10 03:02:28;;;;;;;5.60;4.97;;;14.60;99.90;;;14.43;100.00;96883.72;5051032;28;20395;-38
2023/06/10 03:04:57;;;;;;;7.20;4.75;;;14.60;99.90;;;14.42;100.00;96882.00;5044965;28;20041;-38
2023/06/10 03:07:23;;;;;;;5.55;4.97;;;14.50;99.90;;;14.40;100.00;96880.38;5045522;28;20439;-37
2023/06/10 03:09:50;;;;;;;9.63;5.25;;;14.50;99.90;;;14.37;100.00;96883.22;5048142;28;20047;-37
2023/06/10 03:12:15;;;;;;;7.50;5.70;;;14.50;99.90;;;14.29;100.00;96881.88;5050688;28;20059;-38
2023/06/10 03:14:42;;;;;;;6.40;5.63;;;14.50;99.90;;;14.28;100.00;96882.84;5048504;28;20489;-36
2023/06/10 03:17:08;;;;;;;6.15;5.10;;;14.40;99.90;;;14.29;100.00;96892.50;5050449;28;20191;-36
2023/06/10 03:19:34;;;;;;;6.80;5.85;;;14.40;99.90;;;14.29;100.00;96895.13;5054704;28;20036;-36
2023/06/10 03:22:10;;;;;;;6.10;5.50;;;14.40;99.90;;;14.25;100.00;96890.97;5045137;28;20024;-37
2023/06/10 03:24:39;;;;;;;7.35;5.70;;;14.40;99.90;;;14.23;100.00;96892.00;5044799;28;20025;-39
2023/06/10 03:27:13;;;;;;;8.02;6.03;;;14.40;99.90;;;14.20;100.00;96908.94;5049327;28;20624;-38
2023/06/10 03:29:39;;;;;;;6.88;5.68;;;14.30;99.90;;;14.19;100.00;96914.34;5052931;28;20032;-38
2023/06/10 03:32:06;;;;;;;6.85;5.50;;;14.30;99.90;;;14.18;100.00;96910.84;5046189;28;20028;-38
2023/06/10 03:34:32;;;;;;;7.43;5.60;;;14.30;99.90;;;14.16;100.00;96915.41;5050186;28;20361;-37
2023/06/10 03:36:58;;;;;;;7.68;5.55;;;14.30;99.90;;;14.14;100.00;96909.34;5048163;28;20055;-37
2023/06/10 03:39:24;;;;;;;6.55;5.38;;;14.30;99.90;;;14.19;100.00;96917.00;5046530;28;20032;-37
2023/06/10 03:41:50;;;;;;;7.50;4.88;;;14.30;99.90;;;14.17;100.00;96917.09;5052387;28;20093;-37
2023/06/10 03:44:16;;;;;;;6.13;5.25;;;14.30;99.90;;;14.11;100.00;96906.84;5054286;28;20078;-38
2023/06/10 03:46:41;;;;;;;6.45;5.07;;;14.40;99.90;;;14.25;100.00;96922.81;5048849;28;20021;-37
2023/06/10 03:49:07;;;;;;;6.15;5.10;;;14.40;99.90;;;14.26;100.00;96923.66;5053778;28;20043;-37
2023/06/10 03:51:33;;;;;;;5.50;5.00;;;14.40;99.90;;;14.26;100.00;96927.13;5052417;28;20036;-37
2023/06/10 03:53:59;;;;;;;6.18;5.32;;;14.40;99.90;;;14.29;100.00;96929.63;5052780;28;20240;-38
2023/06/10 03:56:25;;;;;;;7.50;5.25;;;14.40;99.90;;;14.31;100.00;96930.38;5055448;28;20443;-37
2023/06/10 03:58:51;;;;;;;5.88;5.05;;;14.40;99.90;;;14.33;100.00;96925.84;5053917;28;20037;-38
2023/06/10 04:01:20;;;;;;;5.82;4.75;;;14.50;99.90;;;14.31;100.00;96921.56;5049295;28;20033;-37
2023/06/10 04:03:48;;;;;;;6.28;5.20;;;14.50;99.90;;;14.35;100.00;96924.91;5051809;28;20094;-38
2023/06/10 04:06:15;;;;;;;8.32;5.63;;;14.50;99.90;;;14.42;100.00;96928.91;5055346;28;20446;-37
2023/06/10 04:08:42;;;;;;;5.95;5.35;;;14.60;99.90;;;14.43;100.00;96917.34;5050645;28;20399;-38
2023/06/10 04:11:08;;;;;;;6.18;4.90;;;14.60;99.90;;;14.56;100.00;96942.19;5055115;28;20040;-38
2023/06/10 04:13:34;;;;;;;6.55;4.82;;;14.70;99.90;;;14.63;100.00;96930.28;5056947;28;20024;-38
2023/06/10 04:16:00;;;;;;;7.40;4.78;;;14.80;99.90;;;14.68;100.00;96922.91;5053844;28;20191;-38
2023/06/10 04:18:26;;;;;;;6.07;5.30;;;14.80;99.90;;;14.77;100.00;96936.53;5053984;28;20056;-38
2023/06/10 04:20:51;;;;;;;6.32;4.95;;;14.90;99.90;;;14.84;100.00;96921.94;5052565;28;20055;-38
2023/06/10 04:23:18;;;;;;;5.38;4.68;;;15.00;99.90;;;14.89;100.00;96927.81;5056626;28;20025;-37
2023/06/10 04:25:43;;;;;;;6.28;4.55;;;15.00;99.90;;;14.96;100.00;96926.50;5052294;28;20473;-39
2023/06/10 04:28:09;;;;;;;6.18;4.90;;;15.10;99.90;;;14.95;100.00;96918.63;5056452;28;20036;-37
2023/06/10 04:30:35;;;;;;;5.20;4.60;;;15.20;99.90;;;15.10;100.00;96930.94;5053545;28;20021;-37
2023/06/10 04:33:00;;;;;;;6.25;5.22;;;15.20;99.90;;;15.18;100.00;96936.66;5055773;28;20036;-37
2023/06/10 04:35:29;;;;;;;5.63;4.88;;;15.30;99.90;;;15.26;100.00;96933.50;5060670;28;20020;-37
2023/06/10 04:37:54;;;;;;;4.85;4.30;;;15.40;99.90;;;15.35;100.00;96940.03;5050533;28;20052;-37
2023/06/10 04:40:20;;;;;;;5.53;4.60;;;15.50;99.90;;;15.43;100.00;96941.25;5051599;28;20467;-37
2023/06/10 04:42:46;;;;;;;4.93;4.25;;;15.60;99.90;;;15.52;100.00;96941.59;5051663;28;20056;-37
2023/06/10 04:45:12;;;;;;;5.65;4.70;;;15.60;99.90;;;15.60;100.00;96945.47;5053333;28;20039;-37
2023/06/10 04:47:37;;;;;;;5.13;4.55;;;15.70;99.90;;;15.68;100.00;96928.19;5052558;28;20039;-37
2023/06/10 04:50:04;;;;;;;5.03;4.38;;;15.80;99.90;;;15.76;100.00;96936.56;5053875;28;20040;-37
2023/06/10 04:52:29;;;;;;;4.72;4.20;;;15.90;99.90;;;15.87;100.00;96944.69;5050225;28;20535;-37
2023/06/10 04:54:58;;;;;;;4.82;4.30;;;16.00;99.90;;;15.97;100.00;96948.44;5055168;28;20123;-37
2023/06/10 04:57:23;;;;;;;4.55;4.15;;;16.10;99.90;;;16.06;100.00;96944.34;5058379;28;20119;-37
2023/06/10 04:59:49;;;;;;;4.85;3.75;;;16.20;99.90;;;16.16;100.00;96950.72;5052242;28;20640;-37
2023/06/10 05:02:15;;;;;;;5.10;4.60;;;16.30;99.90;;;16.28;100.00;96957.03;5049938;28;20033;-37
2023/06/10 05:04:40;;;;;;;5.28;4.22;;;16.40;99.90;;;16.23;100.00;96933.41;5047343;28;20033;-38
2023/06/10 05:07:06;;;;;;;6.32;4.13;;;16.50;99.90;;;16.50;100.00;96944.94;5048167;28;20075;-37
2023/06/10 05:09:32;;;;;;;5.80;4.60;;;16.60;99.90;;;16.55;100.00;96953.47;5054406;28;20720;-37
2023/06/10 05:11:58;;;;;;;6.07;4.50;;;16.70;99.90;;;16.71;100.00;96950.63;5051952;28;20033;-38
2023/06/10 05:14:24;;;;;;;4.38;3.72;;;16.80;99.90;;;16.83;100.00;96955.09;5051357;28;20493;-39
2023/06/10 05:16:50;;;;;;;6.38;4.40;;;17.00;99.90;;;16.93;100.00;96948.19;5051393;28;20427;-37
2023/06/10 05:19:16;;;;;;;5.45;4.75;;;17.10;99.90;;;17.07;100.00;96954.38;5057862;28;20032;-37
2023/06/10 05:21:42;;;;;;;4.40;4.00;;;17.20;99.90;;;17.20;100.00;96955.19;5051551;28;20040;-37
2023/06/10 05:24:08;;;;;;;5.07;4.07;;;17.30;99.90;;;17.40;100.00;96951.13;5055228;28;20085;-37
2023/06/10 05:26:37;;;;;;;5.25;4.20;;;17.40;99.90;;;17.83;100.00;96956.00;5058542;28;20024;-37
2023/06/10 05:29:04;;;;;;;4.70;4.05;;;17.60;99.90;;;18.34;100.00;96962.97;5054334;28;20330;-37
2023/06/10 05:31:29;;;;;;;5.22;4.00;;;17.90;99.90;;;18.73;100.00;96966.22;5056241;28;20125;-38
2023/06/10 05:33:55;;;;;;;4.35;3.90;;;18.20;99.90;;;18.91;100.00;96955.13;5050502;28;20172;-38
2023/06/10 05:36:21;;;;;;;4.30;3.70;;;18.40;99.90;;;18.93;100.00;96962.03;5048471;28;20515;-38
2023/06/10 05:38:47;;;;;;;5.68;4.30;;;18.60;99.90;;;18.83;99.36;96959.22;5054735;28;20033;-38
2023/06/10 05:41:13;;;;;;;5.45;3.97;;;18.70;99.90;;;18.88;96.86;96974.91;5054155;28;20035;-37
2023/06/10 05:43:38;;;;;;;5.18;4.38;;;18.80;99.90;;;18.86;96.36;96974.16;5052740;28;20506;-37
2023/06/10 05:46:04;;;;;;;5.60;4.18;;;18.80;99.90;;;18.86;97.15;96977.69;5054304;28;20024;-37
2023/06/10 05:48:30;;;;;;;5.55;4.15;;;18.90;99.90;;;18.88;95.33;96967.75;5049945;28;20569;-37
2023/06/10 05:50:56;;;;;;;4.30;3.78;;;18.90;99.90;;;18.94;95.83;96971.75;5051675;28;20485;-37
2023/06/10 05:53:22;;;;;;;4.28;3.80;;;19.00;99.90;;;19.01;96.87;96978.31;5052995;28;20040;-37
2023/06/10 05:55:47;;;;;;;7.88;4.30;;;19.10;99.90;;;19.11;93.70;96978.44;5051421;28;20079;-37
2023/06/10 05:58:13;;;;;;;6.68;4.07;;;19.20;99.90;;;19.20;92.44;96976.88;5055396;28;20047;-38
2023/06/10 06:00:40;;;;;;;4.43;3.85;;;19.30;99.90;;;19.33;90.73;96974.94;5053614;28;20040;-38
2023/06/10 06:03:09;;;;;;;4.90;4.40;;;19.30;99.90;;;19.49;91.21;96979.06;5053895;28;20053;-37
2023/06/10 06:05:35;;;;;;;4.15;3.75;;;19.50;99.90;;;19.54;91.45;96963.50;5057052;28;20432;-38
2023/06/10 06:08:02;;;;;;;7.43;3.60;;;19.60;99.90;;;19.73;90.67;96970.91;5050382;28;20107;-38
2023/06/10 06:10:27;;;;;;;4.43;3.78;;;19.80;99.90;;;19.96;88.71;96979.78;5049062;28;20480;-38
2023/06/10 06:12:53;;;;;;;4.43;4.00;;;19.90;99.90;;;20.06;87.79;96969.16;5047371;28;20040;-37
2023/06/10 06:15:19;;;;;;;6.85;4.10;;;20.10;99.90;;;20.26;83.68;96981.75;5047749;28;20032;-37
2023/06/10 06:17:44;;;;;;;7.68;4.50;;;20.20;99.90;;;20.38;81.92;96986.06;5050066;28;20153;-37
2023/06/10 06:20:10;;;;;;;5.05;4.20;;;20.30;99.90;;;20.53;79.19;96983.09;5050522;28;20040;-38
2023/06/10 06:22:37;;;;;;;5.03;4.40;;;20.40;99.90;;;20.66;80.70;96983.81;5050161;28;20049;-38
2023/06/10 06:25:03;;;;;;;4.70;4.13;;;20.50;99.90;;;20.76;76.89;96984.72;5052364;28;20033;-38
2023/06/10 06:27:29;;;;;;;5.40;4.30;;;20.60;99.90;;;20.87;74.27;96990.97;5052797;28;20428;-35
2023/06/10 06:29:55;;;;;;;4.97;4.32;;;20.70;99.90;;;20.93;73.79;96980.59;5050837;28;21529;-36
2023/06/10 06:32:22;;;;;;;5.93;4.53;;;20.80;99.90;;;21.05;75.62;96984.06;5050785;28;20045;-36
2023/06/10 06:34:53;;;;;;;4.57;3.70;;;20.90;99.90;;;21.19;76.30;96990.88;5050877;28;20032;-38
2023/06/10 06:37:23;;;;;;;5.10;4.32;;;21.00;99.90;;;21.34;75.58;96988.72;5046405;28;20067;-37
2023/06/10 06:39:51;;;;;;;4.65;3.95;;;21.10;99.90;;;21.44;72.00;96994.13;5038940;28;20064;-36
2023/06/10 06:42:16;;;;;;;3.85;3.45;;;21.30;99.90;;;21.56;72.53;96989.56;5049082;28;20413;-36
2023/06/10 06:44:43;;;;;;;5.30;4.20;;;21.30;99.90;;;21.64;70.21;96992.41;5053888;28;20021;-36
2023/06/10 06:47:08;;;;;;;5.10;4.45;;;21.50;99.90;;;21.76;69.02;96988.63;5054074;28;20075;-37
2023/06/10 06:49:34;;;;;;;5.93;4.55;;;21.60;99.90;;;21.86;69.70;96994.03;5051206;28;20028;-38
2023/06/10 06:52:00;;;;;;;6.47;4.75;;;21.70;99.90;;;21.91;68.81;96989.97;5050560;28;20038;-37
2023/06/10 06:54:25;;;;;;;6.35;4.55;;;21.80;99.90;;;22.00;65.50;96998.16;5052271;28;20036;-36
2023/06/10 06:56:51;;;;;;;5.80;4.45;;;21.80;99.90;;;22.11;66.89;96992.69;5052617;28;20443;-37
2023/06/10 06:59:19;;;;;;;6.93;4.88;;;21.90;99.90;;;22.17;65.85;96997.50;5054048;28;20036;-40
2023/06/10 07:01:45;;;;;;;12.07;5.72;;;22.00;99.90;;;22.23;68.01;96998.75;5048060;28;20043;-36
2023/06/10 07:04:11;;;;;;;6.53;4.32;;;22.00;99.90;;;22.25;64.83;96999.47;5046072;28;20488;-39
2023/06/10 07:06:37;;;;;;;4.72;4.30;;;22.10;99.90;;;22.27;64.30;97003.75;5051148;28;20043;-37
2023/06/10 07:09:04;;;;;;;4.32;3.92;;;22.10;99.90;;;22.32;63.26;97000.66;5043634;28;20032;-37
2023/06/10 07:11:30;;;;;;;5.20;4.70;;;22.20;99.90;;;22.40;63.60;97008.88;5049426;28;20093;-38
2023/06/10 07:13:56;;;;;;;6.50;4.60;;;22.30;99.90;;;22.40;62.10;97002.66;5057603;28;20043;-37
2023/06/10 07:16:22;;;;;;;6.25;4.30;;;22.30;99.90;;;22.40;63.89;97006.19;5055551;28;20561;-37
2023/06/10 07:18:48;;;;;;;5.13;4.43;;;22.30;99.90;;;22.40;62.78;97003.50;5056960;28;20027;-37
2023/06/10 07:21:14;;;;;;;5.32;4.38;;;22.30;99.90;;;22.49;65.50;97008.03;5053706;28;20036;-37
2023/06/10 07:23:43;;;;;;;5.18;4.40;;;22.30;99.90;;;22.63;64.33;97009.44;5053162;28;20024;-37
2023/06/10 07:26:10;;;;;;;5.20;4.20;;;22.40;99.90;;;22.73;61.71;97004.06;5051958;28;20437;-38
2023/06/10 07:28:37;;;;;;;5.25;4.00;;;22.50;99.90;;;22.81;62.72;96998.81;5042727;28;20316;-38
2023/06/10 07:31:03;;;;;;;6.70;4.25;;;22.70;99.90;;;22.90;60.26;96998.94;5044928;28;20122;-37
2023/06/10 07:33:29;;;;;;;4.20;3.80;;;22.80;99.90;;;22.98;62.55;97001.78;5054714;28;20075;-37
2023/06/10 07:35:55;;;;;;;4.40;4.00;;;22.80;99.90;;;23.05;59.89;97002.91;5051066;28;21758;-37
2023/06/10 07:38:21;;;;;;;5.22;4.38;;;22.90;99.90;;;22.95;66.02;96980.53;5047586;28;20032;-38
2023/06/10 07:40:46;;;;;;;4.88;4.22;;;22.90;99.90;;;23.11;60.76;97001.50;5056689;28;20499;-39
2023/06/10 07:43:12;;;;;;;4.43;4.00;;;23.00;99.90;;;23.18;61.75;96995.38;5058976;28;20025;-39
2023/06/10 07:45:40;;;;;;;5.22;4.05;;;23.00;99.90;;;23.23;61.06;96995.78;5054317;28;20037;-38
2023/06/10 07:48:06;;;;;;;5.07;4.13;;;23.10;99.90;;;23.34;62.11;97004.69;5053922;28;20317;-39
2023/06/10 07:50:31;;;;;;;7.75;4.97;;;23.20;99.90;;;23.17;55.93;97000.94;5056885;28;20289;-39
2023/06/10 07:52:57;;;;;;;5.05;4.55;;;23.30;98.60;;;23.17;60.33;96999.06;5051314;28;20040;-39
2023/06/10 07:55:25;;;;;;;5.75;4.53;;;23.10;99.70;;;23.23;59.10;97003.03;5054006;28;20063;-38
2023/06/10 07:57:52;;;;;;;5.10;3.83;;;23.10;99.70;;;23.27;61.07;97007.09;5052341;28;20500;-39
2023/06/10 08:00:18;;;;;;;4.88;4.25;;;23.10;99.90;;;23.33;59.50;97000.28;5053998;28;20033;-39
2023/06/10 08:02:44;;;;;;;5.70;4.47;;;23.20;99.80;;;23.33;57.50;97001.16;5054799;28;20021;-37
2023/06/10 08:05:09;;;;;;;4.40;4.00;;;23.20;99.10;;;23.41;58.51;97001.25;5053888;28;20024;-37
2023/06/10 08:07:35;;;;;;;6.00;4.45;;;23.20;99.40;;;23.50;60.77;97001.38;5057473;28;20370;-38
2023/06/10 08:10:02;;;;;;;5.65;4.45;;;23.30;99.80;;;23.54;60.86;96992.84;5059213;28;20031;-37
2023/06/10 08:12:28;;;;;;;7.57;4.43;;;23.40;99.80;;;23.51;59.45;96992.31;5058893;28;20516;-37
2023/06/10 08:14:54;;;;;;;5.60;4.38;;;23.40;99.60;;;23.56;58.25;96995.41;5051241;28;20037;-38
2023/06/10 08:17:20;;;;;;;5.38;4.50;;;23.50;98.90;;;23.55;58.01;96999.09;5055923;28;20039;-40
2023/06/10 08:19:46;;;;;;;5.28;4.45;;;23.50;99.00;;;23.60;57.26;96992.28;5051381;28;20317;-38
2023/06/10 08:22:12;;;;;;;4.85;4.18;;;23.50;98.80;;;23.63;58.06;96992.00;5053639;28;20032;-38
2023/06/10 08:24:37;;;;;;;4.88;4.10;;;23.50;99.10;;;23.74;57.64;96995.47;5057508;28;20031;-38
2023/06/10 08:27:04;;;;;;;5.10;4.55;;;23.60;98.70;;;23.80;55.12;96987.69;5059972;28;20033;-39
2023/06/10 08:29:31;;;;;;;7.13;4.18;;;23.70;98.20;;;23.86;54.59;96990.78;5059955;28;20409;-38
2023/06/10 08:31:57;;;;;;;6.60;4.07;;;23.70;97.60;;;23.92;55.28;96998.25;5055787;28;20025;-40
2023/06/10 08:34:23;;;;;;;6.40;4.32;;;23.70;97.50;;;23.95;55.37;96989.88;5047749;28;20028;-39
2023/06/10 08:36:53;;;;;;;5.63;4.45;;;23.80;97.80;;;24.09;57.42;96986.66;5043810;28;20161;-39
2023/06/10 08:39:19;;;;;;;5.13;4.57;;;23.90;98.20;;;24.23;56.86;96987.13;5054254;28;20035;-39
2023/06/10 08:42:00;;;;;;;4.93;4.43;;;24.00;97.80;;;24.32;54.56;96994.31;5047565;28;20036;-39
2023/06/10 08:44:30;;;;;;;7.13;4.53;;;24.10;97.60;;;24.42;59.81;96989.69;5043024;28;20033;-37
2023/06/10 08:47:01;;;;;;;4.90;4.00;;;24.30;99.10;;;24.50;54.58;96997.88;5040867;28;20760;-38
2023/06/10 08:49:30;;;;;;;7.95;4.30;;;24.30;97.40;;;24.63;51.13;96989.41;5024173;28;20060;-37
2023/06/10 08:51:59;;;;;;;7.28;4.25;;;24.50;96.10;;;24.65;53.61;96987.41;5041588;28;20025;-38
2023/06/10 08:54:30;;;;;;;4.95;4.18;;;24.50;95.90;;;24.63;53.05;96994.81;5046107;28;20037;-38
2023/06/10 08:56:59;;;;;;;10.98;4.20;;;24.50;96.20;;;24.65;51.50;96990.09;5048655;28;20044;-37
2023/06/10 08:59:25;;;;;;;4.55;3.97;;;24.50;96.20;;;24.65;52.21;96986.56;5053281;28;20048;-37
2023/06/10 09:01:52;;;;;;;5.40;4.28;;;24.60;95.80;;;24.60;50.59;96970.00;5049792;28;20165;-37
2023/06/10 09:04:19;;;;;;;4.47;4.07;;;24.60;95.00;;;24.69;54.06;96974.47;5048826;28;20049;-38
2023/06/10 09:06:46;;;;;;;7.38;4.30;;;24.70;96.20;;;24.88;52.19;96982.38;5051144;28;20024;-38
2023/06/10 09:09:15;;;;;;;5.57;4.50;;;24.70;95.60;;;24.87;51.29;96969.06;5039251;28;20490;-40
2023/06/10 09:11:42;;;;;;;5.30;4.80;;;24.80;95.40;;;25.00;50.25;96980.28;5045203;28;20082;-39
2023/06/10 09:14:08;;;;;;;6.78;4.63;;;24.90;94.80;;;25.10;49.73;96980.19;5052699;28;20524;-40
2023/06/10 09:16:34;;;;;;;5.13;4.30;;;24.90;94.40;;;25.10;50.94;96983.72;5059067;28;20111;-38
2023/06/10 09:19:00;;;;;;;5.97;4.30;;;25.00;95.20;;;25.17;50.95;96983.09;5057943;28;20554;-39
2023/06/10 09:21:26;;;;;;;4.47;3.90;;;25.00;94.90;;;25.25;51.44;96977.75;5054347;28;20086;-38
2023/06/10 09:23:52;;;;;;;5.85;4.60;;;25.10;95.00;;;25.33;50.08;96980.53;5074263;28;20086;-38
2023/06/10 09:26:18;;;;;;;4.55;4.15;;;25.20;94.70;;;25.40;50.36;96973.50;5062479;28;20107;-38
2023/06/10 09:28:50;;;;;;;5.85;4.30;;;25.30;94.50;;;25.58;49.87;96973.41;5062886;28;20521;-39
2023/06/10 09:31:21;;;;;;;4.70;4.20;;;25.40;94.40;;;25.69;49.01;96972.28;5062849;28;20036;-39
2023/06/10 09:33:47;;;;;;;4.47;4.05;;;25.60;93.80;;;25.82;48.18;96974.53;5061606;28;20628;-38
2023/06/10 09:36:22;;;;;;;5.35;4.65;;;25.70;93.20;;;25.88;49.45;96973.88;5068808;28;20522;-39
2023/06/10 09:38:50;;;;;;;4.95;3.95;;;25.80;93.20;;;26.02;46.34;96984.09;5062557;28;20478;-38
2023/06/10 09:41:16;;;;;;;5.03;4.50;;;26.00;91.80;;;26.15;46.14;96974.66;5063466;28;20465;-39
2023/06/10 09:43:46;;;;;;;5.95;4.32;;;26.10;92.00;;;26.19;46.36;96968.75;5064630;28;20033;-39
2023/06/10 09:46:19;;;;;;;4.45;4.05;;;26.20;92.10;;;26.23;45.67;96972.81;5051722;28;20036;-40
2023/06/10 09:48:47;;;;;;;6.25;4.35;;;26.20;91.50;;;26.34;45.86;96971.66;5045842;28;20109;-39
2023/06/10 09:51:16;;;;;;;4.75;4.20;;;26.20;91.30;;;26.37;45.68;96975.91;5049988;28;20033;-39
2023/06/10 09:53:42;;;;;;;7.03;4.82;;;26.30;91.30;;;26.63;46.45;96968.53;5059722;28;20044;-37
2023/06/10 09:56:11;;;;;;;5.88;4.50;;;26.50;91.50;;;26.85;44.52;96972.41;5077362;28;20036;-40
2023/06/10 09:58:38;;;;;;;4.88;4.38;;;26.80;90.80;;;27.11;46.22;96965.13;5059407;28;20036;-38
2023/06/10 10:01:06;;;;;;;4.55;4.15;;;27.10;90.40;;;27.35;44.79;96972.38;5064189;28;20039;-38
2023/06/10 10:03:32;;;;;;;5.25;4.75;;;27.20;90.30;;;27.35;43.75;96966.94;5060463;28;20047;-38
2023/06/10 10:06:00;;;;;;;5.15;4.65;;;27.30;89.20;;;27.39;45.32;96973.72;5065704;28;20033;-38
2023/06/10 10:08:26;;;;;;;5.95;4.90;;;27.30;90.60;;;27.26;45.04;96973.38;5061557;28;20023;-38
2023/06/10 10:10:51;;;;;;;4.88;4.43;;;27.20;90.40;;;26.95;44.93;96964.09;5062911;28;20119;-38
2023/06/10 10:13:18;;;;;;;5.22;4.72;;;27.00;89.80;;;26.69;43.97;96967.00;5065937;28;20112;-38
2023/06/10 10:15:45;;;;;;;9.60;4.70;;;26.80;88.20;;;26.63;44.54;96965.81;5061996;28;20043;-38